createdAt,value
2019-05-29T00:01:03.023Z,2.47
2019-05-29T00:03:34.061Z,3.37
2019-05-29T00:06:06.196Z,2.90
2019-05-29T00:08:37.739Z,3.40
2019-05-29T00:11:10.114Z,3.23
2019-05-29T00:13:41.409Z,3.27
2019-05-29T00:16:12.745Z,3.40
2019-05-29T00:18:43.761Z,3.63
2019-05-29T00:21:15.245Z,3.80
2019-05-29T00:23:46.281Z,3.87
2019-05-29T00:26:18.031Z,3.67
2019-05-29T00:28:49.197Z,3.93
2019-05-29T00:31:20.629Z,4.20
2019-05-29T00:33:51.719Z,4.10
2019-05-29T00:36:23.223Z,4.30
2019-05-29T00:38:54.239Z,4.10
2019-05-29T00:41:26.951Z,4.20
2019-05-29T00:43:58.255Z,3.93
2019-05-29T00:46:29.544Z,4.70
2019-05-29T00:49:00.627Z,4.20
2019-05-29T00:51:31.790Z,4.80
2019-05-29T00:54:02.805Z,5.40
2019-05-29T00:56:35.148Z,5.97
2019-05-29T00:59:06.257Z,5.13
2019-05-29T01:01:37.415Z,5.57
2019-05-29T01:04:09.498Z,6.67
2019-05-29T01:06:41.363Z,6.50
2019-05-29T01:09:12.715Z,5.83
2019-05-29T01:11:44.075Z,5.40
2019-05-29T01:14:15.220Z,5.60
2019-05-29T01:16:46.613Z,6.03
2019-05-29T01:19:26.640Z,6.40
2019-05-29T01:21:58.480Z,5.40
2019-05-29T01:24:39.300Z,5.93
2019-05-29T01:27:10.632Z,5.97
2019-05-29T01:29:42.573Z,5.67
2019-05-29T01:32:13.911Z,5.83
2019-05-29T01:34:45.113Z,5.67
2019-05-29T01:37:16.716Z,6.10
2019-05-29T01:39:47.776Z,5.50
2019-05-29T01:42:19.457Z,4.53
2019-05-29T01:45:06.334Z,5.27
2019-05-29T01:47:33.602Z,5.10
2019-05-29T01:50:04.916Z,4.57
2019-05-29T01:52:37.302Z,4.00
2019-05-29T01:55:08.839Z,3.93
2019-05-29T01:57:40.408Z,3.83
2019-05-29T02:00:12.075Z,3.80
2019-05-29T02:02:43.625Z,3.20
2019-05-29T02:05:15.735Z,3.00
2019-05-29T02:07:47.657Z,3.40
2019-05-29T02:10:19.892Z,2.90
2019-05-29T02:12:51.484Z,3.23
2019-05-29T02:15:31.721Z,3.20
2019-05-29T02:17:57.143Z,2.97
2019-05-29T02:20:29.386Z,2.87
2019-05-29T02:23:00.770Z,2.90
2019-05-29T02:25:31.865Z,2.43
2019-05-29T02:28:03.160Z,2.70
2019-05-29T02:30:34.206Z,3.03
2019-05-29T02:33:05.549Z,3.40
2019-05-29T02:35:48.126Z,2.93
2019-05-29T02:38:20.477Z,3.70
2019-05-29T02:40:51.730Z,3.13
2019-05-29T02:43:23.617Z,3.60
2019-05-29T02:45:56.049Z,4.20
2019-05-29T02:48:29.607Z,4.03
2019-05-29T02:51:00.633Z,3.10
2019-05-29T02:53:33.149Z,3.70
2019-05-29T02:56:04.354Z,4.00
2019-05-29T02:58:35.531Z,3.60
2019-05-29T03:01:06.755Z,4.03
2019-05-29T03:03:39.704Z,4.17
2019-05-29T03:06:11.556Z,3.37
2019-05-29T03:08:43.009Z,3.60
2019-05-29T03:11:14.411Z,3.20
2019-05-29T03:13:46.001Z,3.97
2019-05-29T03:16:17.044Z,4.07
2019-05-29T03:18:48.290Z,4.10
2019-05-29T03:21:19.338Z,4.10
2019-05-29T03:23:50.551Z,4.30
2019-05-29T03:26:24.756Z,5.30
2019-05-29T03:28:54.703Z,4.53
2019-05-29T03:31:28.434Z,4.23
2019-05-29T03:33:58.879Z,4.53
2019-05-29T03:36:37.602Z,4.97
2019-05-29T03:39:03.178Z,4.77
2019-05-29T03:41:34.869Z,4.87
2019-05-29T03:44:10.308Z,4.50
2019-05-29T03:46:45.203Z,4.20
2019-05-29T03:49:12.765Z,4.70
2019-05-29T03:51:43.815Z,4.40
2019-05-29T03:54:16.185Z,4.53
2019-05-29T03:56:47.306Z,4.30
2019-05-29T03:59:18.789Z,4.27
2019-05-29T04:01:49.849Z,4.43
2019-05-29T04:04:21.119Z,4.40
2019-05-29T04:06:52.555Z,5.83
2019-05-29T04:09:23.990Z,5.40
2019-05-29T04:11:55.527Z,5.53
2019-05-29T04:14:27.602Z,5.27
2019-05-29T04:17:00.794Z,5.70
2019-05-29T04:19:52.072Z,6.07
2019-05-29T04:22:25.242Z,4.50
2019-05-29T04:24:57.457Z,4.97
2019-05-29T04:27:30.072Z,4.90
2019-05-29T04:30:03.631Z,4.90
2019-05-29T04:32:36.381Z,3.73
2019-05-29T04:35:07.945Z,3.60
2019-05-29T04:37:39.836Z,3.97
2019-05-29T04:40:12.175Z,4.50
2019-05-29T04:42:43.269Z,4.40
2019-05-29T04:45:15.533Z,3.80
2019-05-29T04:47:46.586Z,3.63
2019-05-29T04:50:17.823Z,4.03
2019-05-29T04:52:48.895Z,3.40
2019-05-29T04:55:20.322Z,3.80
2019-05-29T04:57:53.382Z,3.23
2019-05-29T05:00:24.858Z,3.93
2019-05-29T05:02:55.900Z,3.70
2019-05-29T05:05:27.237Z,3.53
2019-05-29T05:07:58.280Z,3.57
2019-05-29T05:10:56.590Z,3.53
2019-05-29T05:13:27.885Z,3.50
2019-05-29T05:16:02.874Z,3.63
2019-05-29T05:18:33.938Z,3.40
2019-05-29T05:21:05.160Z,3.33
2019-05-29T05:23:36.468Z,3.40
2019-05-29T05:26:08.160Z,3.10
2019-05-29T05:28:44.087Z,3.37
2019-05-29T05:31:12.806Z,3.50
2019-05-29T05:33:44.044Z,4.00
2019-05-29T05:36:15.405Z,2.80
2019-05-29T05:38:46.560Z,3.57
2019-05-29T05:41:17.688Z,3.47
2019-05-29T05:43:48.774Z,3.20
2019-05-29T05:46:19.976Z,3.20
2019-05-29T05:48:51.023Z,3.50
2019-05-29T05:51:22.322Z,3.40
2019-05-29T05:53:53.407Z,3.50
2019-05-29T05:56:24.756Z,3.80
2019-05-29T05:58:55.874Z,3.97
2019-05-29T06:01:27.260Z,3.30
2019-05-29T06:03:58.432Z,3.60
2019-05-29T06:06:29.651Z,3.30
2019-05-29T06:09:01.087Z,3.20
2019-05-29T06:11:34.106Z,2.90
2019-05-29T06:14:06.424Z,3.47
2019-05-29T06:16:38.611Z,3.77
2019-05-29T06:19:09.902Z,4.47
2019-05-29T06:21:41.145Z,4.10
2019-05-29T06:24:12.248Z,4.57
2019-05-29T06:26:44.038Z,4.60
2019-05-29T06:29:15.223Z,4.83
2019-05-29T06:31:46.830Z,4.50
2019-05-29T06:34:17.964Z,4.53
2019-05-29T06:36:49.225Z,4.57
2019-05-29T06:39:20.264Z,5.10
2019-05-29T06:41:53.477Z,4.80
2019-05-29T06:44:24.594Z,4.27
2019-05-29T06:46:55.971Z,4.83
2019-05-29T06:49:27.534Z,5.23
2019-05-29T06:51:59.063Z,4.77
2019-05-29T06:54:30.160Z,4.50
2019-05-29T06:57:08.528Z,5.40
2019-05-29T06:59:40.462Z,4.60
2019-05-29T07:02:12.040Z,4.40
2019-05-29T07:04:44.593Z,5.03
2019-05-29T07:07:16.084Z,4.43
2019-05-29T07:09:47.261Z,6.10
2019-05-29T07:12:19.077Z,4.53
2019-05-29T07:14:50.366Z,4.90
2019-05-29T07:17:21.674Z,4.90
2019-05-29T07:20:03.429Z,4.83
2019-05-29T07:22:27.439Z,4.60
2019-05-29T07:24:58.530Z,4.90
2019-05-29T07:27:30.037Z,4.80
2019-05-29T07:30:01.135Z,4.93
2019-05-29T07:32:34.372Z,5.33
2019-05-29T07:35:06.075Z,4.90
2019-05-29T07:37:37.826Z,5.20
2019-05-29T07:40:10.975Z,4.67
2019-05-29T07:42:47.935Z,5.50
2019-05-29T07:45:16.745Z,5.30
2019-05-29T07:47:48.588Z,5.67
2019-05-29T07:50:20.175Z,4.70
2019-05-29T07:52:52.152Z,4.77
2019-05-29T07:55:23.851Z,5.27
2019-05-29T07:57:55.349Z,4.70
2019-05-29T08:00:35.287Z,5.00
2019-05-29T08:03:00.716Z,5.37
2019-05-29T08:05:31.920Z,5.17
2019-05-29T08:08:03.180Z,5.37
2019-05-29T08:10:35.506Z,5.33
2019-05-29T08:13:06.922Z,5.70
2019-05-29T08:15:52.959Z,5.63
2019-05-29T08:18:12.083Z,4.80
2019-05-29T08:20:44.004Z,6.10
2019-05-29T08:23:16.316Z,5.57
2019-05-29T08:25:47.703Z,5.20
2019-05-29T08:28:19.330Z,5.80
2019-05-29T08:30:55.719Z,6.00
2019-05-29T08:33:25.817Z,6.60
2019-05-29T08:36:00.187Z,5.73
2019-05-29T08:38:31.308Z,5.43
2019-05-29T08:41:05.817Z,4.97
2019-05-29T08:43:35.399Z,4.97
2019-05-29T08:46:06.476Z,5.53
2019-05-29T08:48:37.913Z,4.60
2019-05-29T08:51:08.948Z,5.37
2019-05-29T08:53:40.292Z,5.43
2019-05-29T08:56:11.367Z,5.53
2019-05-29T08:58:42.929Z,5.10
2019-05-29T09:01:14.744Z,5.90
2019-05-29T09:03:46.760Z,5.37
2019-05-29T09:06:18.070Z,5.83
2019-05-29T09:08:50.479Z,6.27
2019-05-29T09:11:22.195Z,6.03
2019-05-29T09:13:53.594Z,5.70
2019-05-29T09:16:24.722Z,6.03
2019-05-29T09:18:55.942Z,5.37
2019-05-29T09:21:27.058Z,5.63
2019-05-29T09:23:58.974Z,5.97
2019-05-29T09:26:31.022Z,6.27
2019-05-29T09:29:02.370Z,5.73
2019-05-29T09:31:33.742Z,4.90
2019-05-29T09:34:05.021Z,5.13
2019-05-29T09:36:36.072Z,5.33
2019-05-29T09:39:09.147Z,5.27
2019-05-29T09:41:40.172Z,4.80
2019-05-29T09:44:28.550Z,5.23
2019-05-29T09:46:44.527Z,5.17
2019-05-29T09:49:17.136Z,5.87
2019-05-29T09:52:09.782Z,6.47
2019-05-29T09:54:41.562Z,5.40
2019-05-29T09:57:15.351Z,5.40
2019-05-29T09:59:46.523Z,4.77
2019-05-29T10:02:17.979Z,5.33
2019-05-29T10:04:49.239Z,5.53
2019-05-29T10:07:20.255Z,4.50
2019-05-29T10:09:51.720Z,4.93
2019-05-29T10:12:23.079Z,5.33
2019-05-29T10:14:56.037Z,4.80
2019-05-29T10:17:27.519Z,4.80
2019-05-29T10:19:59.016Z,4.30
2019-05-29T10:22:30.382Z,4.03
2019-05-29T10:25:01.983Z,3.83
2019-05-29T10:27:33.637Z,3.50
2019-05-29T10:30:06.091Z,2.90
2019-05-29T10:32:37.593Z,3.30
2019-05-29T10:35:09.417Z,3.40
2019-05-29T10:37:40.564Z,3.23
2019-05-29T10:40:12.311Z,3.67
2019-05-29T10:42:44.989Z,3.17
2019-05-29T10:45:17.376Z,4.33
2019-05-29T10:47:49.810Z,6.50
2019-05-29T10:50:33.078Z,5.00
2019-05-29T10:53:04.200Z,5.23
2019-05-29T10:55:35.663Z,4.83
2019-05-29T10:58:06.773Z,3.93
2019-05-29T11:00:39.254Z,2.97
2019-05-29T11:03:10.818Z,3.57
2019-05-29T11:05:42.138Z,3.20
2019-05-29T11:08:13.241Z,3.70
2019-05-29T11:10:44.499Z,3.70
2019-05-29T11:13:15.535Z,3.97
2019-05-29T11:15:46.926Z,4.00
2019-05-29T11:18:17.957Z,3.57
2019-05-29T11:20:49.414Z,2.97
2019-05-29T11:23:20.535Z,3.10
2019-05-29T11:25:52.145Z,2.20
2019-05-29T11:28:23.179Z,2.90
2019-05-29T11:30:55.603Z,3.57
2019-05-29T11:33:27.127Z,4.53
2019-05-29T11:36:09.892Z,5.57
2019-05-29T11:38:31.119Z,5.10
2019-05-29T11:41:23.556Z,5.07
2019-05-29T11:43:35.527Z,5.10
2019-05-29T11:46:06.674Z,2.57
2019-05-29T11:48:37.793Z,2.70
2019-05-29T11:51:09.139Z,2.97
2019-05-29T11:53:40.199Z,1.90
2019-05-29T11:56:11.659Z,1.77
2019-05-29T11:58:42.728Z,1.40
2019-05-29T12:01:23.407Z,1.53
2019-05-29T12:04:24.109Z,1.67
2019-05-29T12:06:27.446Z,1.40
2019-05-29T12:08:59.863Z,1.40
2019-05-29T12:11:31.311Z,1.37
2019-05-29T12:14:02.611Z,1.53
2019-05-29T12:16:34.014Z,1.50
2019-05-29T12:19:05.514Z,1.50
2019-05-29T12:21:36.829Z,1.77
2019-05-29T12:24:07.875Z,2.10
2019-05-29T12:26:39.393Z,2.20
2019-05-29T12:29:11.853Z,2.50
2019-05-29T12:31:43.412Z,2.03
2019-05-29T12:34:19.267Z,2.10
2019-05-29T12:36:48.792Z,1.90
2019-05-29T12:39:19.901Z,2.20
2019-05-29T12:41:51.195Z,3.03
2019-05-29T12:44:22.323Z,2.90
2019-05-29T12:46:53.595Z,3.00
2019-05-29T12:49:24.748Z,2.90
2019-05-29T12:51:55.927Z,2.63
2019-05-29T12:54:27.277Z,3.40
2019-05-29T12:56:59.861Z,2.80
2019-05-29T12:59:31.155Z,2.70
2019-05-29T13:02:15.013Z,4.30
2019-05-29T13:05:07.227Z,2.70
2019-05-29T13:07:19.541Z,2.70
2019-05-29T13:09:50.616Z,2.87
2019-05-29T13:12:21.810Z,2.80
2019-05-29T13:14:52.874Z,2.60
2019-05-29T13:17:24.114Z,3.10
2019-05-29T13:19:59.648Z,2.67
2019-05-29T13:22:28.447Z,3.37
2019-05-29T13:24:59.676Z,2.70
2019-05-29T13:27:30.933Z,2.80
2019-05-29T13:30:04.198Z,3.17
2019-05-29T13:32:34.976Z,3.00
2019-05-29T13:35:07.938Z,2.77
2019-05-29T13:37:39.247Z,2.30
2019-05-29T13:40:12.172Z,2.30
2019-05-29T13:42:43.573Z,2.37
2019-05-29T13:45:18.131Z,2.70
2019-05-29T13:47:48.940Z,2.83
2019-05-29T13:50:21.180Z,2.27
2019-05-29T13:52:52.423Z,2.20
2019-05-29T13:55:23.983Z,2.63
2019-05-29T13:57:55.541Z,2.67
2019-05-29T14:00:33.344Z,2.53
2019-05-29T14:03:00.293Z,3.23
2019-05-29T14:05:31.561Z,2.83
2019-05-29T14:08:03.001Z,2.70
2019-05-29T14:10:34.067Z,2.60
2019-05-29T14:13:05.686Z,2.47
2019-05-29T14:15:36.715Z,2.60
2019-05-29T14:18:09.008Z,2.60
2019-05-29T14:20:40.588Z,2.87
2019-05-29T14:23:13.033Z,2.67
2019-05-29T14:25:44.060Z,2.40
2019-05-29T14:28:15.232Z,2.70
2019-05-29T14:30:46.351Z,2.97
2019-05-29T14:33:18.512Z,3.27
2019-05-29T14:35:49.695Z,3.70
2019-05-29T14:38:33.032Z,3.67
2019-05-29T14:41:04.178Z,3.40
2019-05-29T14:43:35.411Z,3.13
2019-05-29T14:46:06.544Z,3.50
2019-05-29T14:48:38.400Z,3.50
2019-05-29T14:51:10.585Z,3.10
2019-05-29T14:53:41.820Z,3.73
2019-05-29T14:56:13.199Z,3.10
2019-05-29T14:58:44.392Z,3.10
2019-05-29T15:01:15.459Z,2.97
2019-05-29T15:03:46.717Z,2.90
2019-05-29T15:06:17.848Z,2.70
2019-05-29T15:08:49.107Z,2.60
2019-05-29T15:11:20.287Z,2.60
2019-05-29T15:13:51.541Z,2.63
2019-05-29T15:16:23.102Z,2.30
2019-05-29T15:18:54.499Z,2.40
2019-05-29T15:21:26.598Z,2.30
2019-05-29T15:23:57.894Z,2.17
2019-05-29T15:26:29.904Z,2.20
2019-05-29T15:29:01.670Z,2.40
2019-05-29T15:31:32.915Z,2.30
2019-05-29T15:34:04.342Z,2.30
2019-05-29T15:36:35.607Z,2.20
2019-05-29T15:39:08.607Z,2.50
2019-05-29T15:44:23.359Z,2.70
2019-05-29T15:46:55.011Z,2.90
2019-05-29T15:49:26.164Z,2.80
2019-05-29T15:51:57.218Z,2.43
2019-05-29T15:54:28.361Z,2.80
2019-05-29T15:56:59.447Z,3.07
2019-05-29T15:59:30.731Z,2.90
2019-05-29T16:02:01.854Z,2.87
2019-05-29T16:04:33.213Z,3.10
2019-05-29T16:07:04.361Z,2.60
2019-05-29T16:09:36.339Z,3.10
2019-05-29T16:12:08.531Z,3.00
2019-05-29T16:14:39.867Z,3.47
2019-05-29T16:17:11.046Z,4.13
2019-05-29T16:19:42.253Z,4.40
2019-05-29T16:22:14.340Z,4.03
2019-05-29T16:24:46.347Z,4.40
2019-05-29T16:27:18.175Z,4.07
2019-05-29T16:29:49.691Z,3.77
2019-05-29T16:32:22.019Z,3.40
2019-05-29T16:34:53.628Z,3.87
2019-05-29T16:37:24.797Z,5.90
2019-05-29T16:39:56.219Z,4.80
2019-05-29T16:42:27.505Z,4.83
2019-05-29T16:44:58.819Z,4.30
2019-05-29T16:47:29.981Z,4.33
2019-05-29T16:50:01.178Z,4.10
2019-05-29T16:52:32.292Z,4.10
2019-05-29T16:55:03.750Z,4.27
2019-05-29T16:57:35.187Z,3.80
2019-05-29T17:00:07.303Z,3.90
2019-05-29T17:02:38.480Z,3.87
2019-05-29T17:05:10.342Z,3.90
2019-05-29T17:07:41.537Z,4.07
2019-05-29T17:10:14.265Z,4.03
2019-05-29T17:12:46.666Z,4.10
2019-05-29T17:15:18.872Z,3.80
2019-05-29T17:17:50.432Z,3.60
2019-05-29T17:20:38.169Z,4.10
2019-05-29T17:23:09.385Z,4.40
2019-05-29T17:25:40.891Z,4.17
2019-05-29T17:28:11.984Z,4.63
2019-05-29T17:30:43.290Z,4.30
2019-05-29T17:33:15.102Z,4.90
2019-05-29T17:35:46.631Z,4.60
2019-05-29T17:38:18.928Z,4.70
2019-05-29T17:40:50.827Z,4.30
2019-05-29T17:43:24.917Z,4.77
2019-05-29T17:45:54.935Z,4.90
2019-05-29T17:48:26.090Z,5.60
2019-05-29T17:50:57.283Z,6.00
2019-05-29T17:53:28.402Z,6.50
2019-05-29T17:55:59.749Z,5.80
2019-05-29T17:58:50.150Z,5.40
2019-05-29T18:01:22.209Z,5.67
2019-05-29T18:03:53.415Z,5.63
2019-05-29T18:06:24.738Z,5.57
2019-05-29T18:08:55.789Z,5.53
2019-05-29T18:11:27.651Z,5.10
2019-05-29T18:14:03.835Z,5.10
2019-05-29T18:16:33.179Z,5.40
2019-05-29T18:19:04.324Z,5.30
2019-05-29T18:21:35.771Z,5.03
2019-05-29T18:24:06.893Z,5.00
2019-05-29T18:26:46.802Z,5.43
2019-05-29T18:29:11.052Z,5.50
2019-05-29T18:31:43.227Z,5.50
2019-05-29T18:34:14.305Z,5.57
2019-05-29T18:36:45.616Z,4.70
2019-05-29T18:39:16.940Z,5.87
2019-05-29T18:41:48.140Z,5.50
2019-05-29T18:44:20.647Z,5.17
2019-05-29T18:46:52.439Z,5.70
2019-05-29T18:49:24.323Z,5.10
2019-05-29T18:51:55.972Z,6.30
2019-05-29T18:54:27.962Z,5.80
2019-05-29T18:57:14.640Z,5.30
2019-05-29T18:59:32.139Z,5.80
2019-05-29T19:02:03.524Z,5.27
2019-05-29T19:04:34.593Z,5.90
2019-05-29T19:07:06.347Z,5.13
2019-05-29T19:09:47.259Z,5.10
2019-05-29T19:12:21.792Z,5.50
2019-05-29T19:14:52.853Z,5.70
2019-05-29T19:17:24.214Z,5.33
2019-05-29T19:19:55.275Z,4.77
2019-05-29T19:22:26.593Z,4.80
2019-05-29T19:24:57.717Z,6.00
2019-05-29T19:27:37.371Z,5.10
2019-05-29T19:30:01.774Z,5.60
2019-05-29T19:32:34.661Z,6.50
2019-05-29T19:35:07.025Z,5.70
2019-05-29T19:37:38.447Z,5.80
2019-05-29T19:40:10.298Z,5.60
2019-05-29T19:42:41.535Z,6.00
2019-05-29T19:45:12.773Z,6.37
2019-05-29T19:47:44.100Z,7.07
2019-05-29T19:50:16.277Z,6.50
2019-05-29T19:52:47.409Z,5.77
2019-05-29T19:55:18.456Z,5.43
2019-05-29T19:57:55.545Z,6.10
2019-05-29T20:00:22.767Z,7.00
2019-05-29T20:02:54.029Z,6.37
2019-05-29T20:05:25.177Z,5.77
2019-05-29T20:07:56.433Z,5.63
2019-05-29T20:10:27.475Z,6.20
2019-05-29T20:12:58.856Z,5.57
2019-05-29T20:15:29.947Z,5.47
2019-05-29T20:18:01.218Z,6.73
2019-05-29T20:20:32.487Z,6.07
2019-05-29T20:23:04.219Z,6.77
2019-05-29T20:25:35.319Z,5.90
2019-05-29T20:28:07.023Z,6.30
2019-05-29T20:30:39.296Z,5.93
2019-05-29T20:33:22.395Z,5.67
2019-05-29T20:35:53.456Z,5.93
2019-05-29T20:38:24.804Z,6.33
2019-05-29T20:40:55.835Z,7.20
2019-05-29T20:43:37.634Z,6.70
2019-05-29T20:46:08.757Z,7.07
2019-05-29T20:48:40.240Z,6.50
2019-05-29T20:51:11.281Z,7.60
2019-05-29T20:53:42.622Z,7.00
2019-05-29T20:56:13.715Z,7.30
2019-05-29T20:58:46.043Z,7.00
2019-05-29T21:01:17.113Z,7.37
2019-05-29T21:03:48.435Z,6.63
2019-05-29T21:06:20.868Z,7.57
2019-05-29T21:08:52.471Z,7.43
2019-05-29T21:11:23.574Z,7.53
2019-05-29T21:13:54.857Z,6.90
2019-05-29T21:16:25.951Z,6.30
2019-05-29T21:18:57.168Z,7.50
2019-05-29T21:21:28.241Z,7.33
2019-05-29T21:24:00.689Z,6.83
2019-05-29T21:26:31.712Z,6.97
2019-05-29T21:29:03.055Z,6.90
2019-05-29T21:31:35.333Z,7.60
2019-05-29T21:34:06.995Z,6.40
2019-05-29T21:36:38.053Z,7.27
2019-05-29T21:39:10.201Z,6.80
2019-05-29T21:41:42.477Z,6.67
2019-05-29T21:44:13.924Z,7.13
2019-05-29T21:46:45.187Z,7.33
2019-05-29T21:49:16.830Z,7.20
2019-05-29T21:51:48.017Z,7.77
2019-05-29T21:54:19.431Z,8.03
2019-05-29T21:56:50.570Z,7.77
2019-05-29T21:59:21.827Z,8.40
2019-05-29T22:01:52.955Z,8.40
2019-05-29T22:04:24.321Z,8.37
2019-05-29T22:06:55.369Z,8.50
2019-05-29T22:09:26.700Z,8.27
2019-05-29T22:11:58.558Z,7.80
2019-05-29T22:14:29.966Z,8.00
2019-05-29T22:17:20.154Z,7.83
2019-05-29T22:19:51.384Z,8.70
2019-05-29T22:22:41.565Z,10.90
2019-05-29T22:25:13.403Z,9.90
2019-05-29T22:27:45.631Z,11.67
2019-05-29T22:30:17.731Z,10.83
2019-05-29T22:32:48.967Z,10.90
2019-05-29T22:35:20.748Z,10.30
2019-05-29T22:37:53.114Z,9.80
2019-05-29T22:40:25.269Z,8.37
2019-05-29T22:42:57.513Z,8.60
2019-05-29T22:45:28.827Z,8.90
2019-05-29T22:47:59.945Z,9.47
2019-05-29T22:50:31.309Z,9.40
2019-05-29T22:53:02.323Z,8.47
2019-05-29T22:55:34.614Z,9.93
2019-05-29T22:58:05.622Z,9.60
2019-05-29T23:00:36.935Z,9.87
2019-05-29T23:03:07.942Z,9.33
2019-05-29T23:05:39.196Z,8.93
2019-05-29T23:08:11.328Z,9.83
2019-05-29T23:10:42.694Z,10.07
2019-05-29T23:13:13.781Z,10.23
2019-05-29T23:15:45.401Z,11.00
2019-05-29T23:18:17.652Z,9.60
2019-05-29T23:20:48.828Z,9.97
2019-05-29T23:23:19.901Z,11.40
2019-05-29T23:25:52.451Z,11.23
2019-05-29T23:28:23.685Z,13.33
2019-05-29T23:30:54.955Z,12.27
2019-05-29T23:33:26.079Z,13.00
2019-05-29T23:35:57.351Z,11.43
2019-05-29T23:38:28.792Z,12.77
2019-05-29T23:41:19.088Z,11.97
2019-05-29T23:43:50.163Z,11.87
2019-05-29T23:46:21.475Z,12.70
2019-05-29T23:48:53.497Z,12.97
2019-05-29T23:51:25.315Z,13.30
2019-05-29T23:53:57.652Z,13.03
2019-05-29T23:56:29.943Z,13.60
2019-05-29T23:59:01.938Z,12.00
